createdAt,value
2017-01-30T00:00:04.604Z,5.78
2017-01-30T00:01:13.597Z,5.68
2017-01-30T00:02:23.269Z,5.72
2017-01-30T00:03:32.317Z,5.65
2017-01-30T00:04:41.690Z,5.65
2017-01-30T00:05:50.817Z,5.71
2017-01-30T00:07:00.212Z,5.65
2017-01-30T00:08:09.283Z,5.68
2017-01-30T00:09:18.239Z,5.72
2017-01-30T00:10:27.200Z,5.71
2017-01-30T00:11:36.560Z,5.6
2017-01-30T00:12:45.515Z,5.61
2017-01-30T00:13:54.478Z,5.53
2017-01-30T00:15:03.438Z,5.56
2017-01-30T00:16:12.893Z,5.61
2017-01-30T00:17:21.852Z,5.64
2017-01-30T00:18:30.814Z,5.65
2017-01-30T00:19:39.771Z,5.65
2017-01-30T00:20:48.728Z,5.67
2017-01-30T00:21:57.689Z,5.71
2017-01-30T00:23:07.375Z,5.65
2017-01-30T00:24:16.812Z,5.71
2017-01-30T00:25:25.765Z,5.57
2017-01-30T00:26:35.001Z,5.61
2017-01-30T00:27:44.931Z,5.58
2017-01-30T00:28:55.227Z,5.61
2017-01-30T00:30:05.608Z,5.51
2017-01-30T00:31:14.653Z,5.51
2017-01-30T00:32:23.641Z,5.56
2017-01-30T00:33:32.969Z,5.58
2017-01-30T00:34:42.288Z,5.53
2017-01-30T00:35:52.239Z,5.48
2017-01-30T00:37:01.525Z,5.49
2017-01-30T00:38:10.882Z,5.57
2017-01-30T00:39:20.485Z,5.53
2017-01-30T00:40:29.450Z,5.6
2017-01-30T00:41:38.413Z,5.57
2017-01-30T00:42:47.375Z,5.54
2017-01-30T00:43:56.332Z,5.57
2017-01-30T00:45:10.556Z,5.48
2017-01-30T00:46:27.003Z,5.43
2017-01-30T00:47:41.366Z,5.36
2017-01-30T00:48:58.483Z,5.31
2017-01-30T00:50:16.599Z,5.33
2017-01-30T00:51:38.240Z,5.31
2017-01-30T00:53:01.171Z,5.31
2017-01-30T00:54:24.576Z,5.3
2017-01-30T00:55:46.977Z,5.4
2017-01-30T00:57:07.192Z,5.42
2017-01-30T00:58:30.095Z,5.45
2017-01-30T00:59:51.685Z,5.36
2017-01-30T01:01:17.418Z,5.43
2017-01-30T01:02:37.306Z,5.36
2017-01-30T01:03:57.213Z,5.35
2017-01-30T01:05:14.702Z,5.3
2017-01-30T01:06:28.224Z,5.31
2017-01-30T01:07:41.024Z,5.4
2017-01-30T01:08:50.639Z,5.43
2017-01-30T01:10:05.671Z,5.48
2017-01-30T01:11:18.225Z,5.56
2017-01-30T01:12:36.668Z,5.51
2017-01-30T01:14:00.279Z,5.58
2017-01-30T01:15:17.924Z,5.64
2017-01-30T01:16:38.354Z,5.64
2017-01-30T01:17:56.886Z,5.67
2017-01-30T01:19:21.060Z,5.68
2017-01-30T01:20:41.172Z,5.68
2017-01-30T01:22:02.375Z,5.68
2017-01-30T01:23:19.652Z,5.74
2017-01-30T01:24:33.203Z,5.85
2017-01-30T01:25:42.850Z,5.79
2017-01-30T01:26:53.724Z,5.79
2017-01-30T01:28:03.760Z,5.85
2017-01-30T01:29:14.599Z,5.79
2017-01-30T01:30:32.445Z,5.86
2017-01-30T01:31:46.228Z,5.82
2017-01-30T01:32:58.019Z,5.93
2017-01-30T01:34:09.898Z,5.89
2017-01-30T01:35:21.986Z,5.89
2017-01-30T01:36:32.194Z,5.85
2017-01-30T01:37:45.226Z,5.86
2017-01-30T01:38:58.969Z,5.86
2017-01-30T01:40:12.628Z,5.86
2017-01-30T01:41:22.919Z,5.82
2017-01-30T01:42:31.877Z,5.96
2017-01-30T01:43:40.922Z,5.81
2017-01-30T01:44:49.874Z,5.93
2017-01-30T01:45:58.828Z,5.91
2017-01-30T01:47:07.788Z,5.94
2017-01-30T01:48:16.836Z,6
2017-01-30T01:49:25.797Z,5.99
2017-01-30T01:50:34.758Z,6
2017-01-30T01:51:43.721Z,6.03
2017-01-30T01:52:52.681Z,6.11
2017-01-30T01:54:01.647Z,6.01
2017-01-30T01:55:11.006Z,6.14
2017-01-30T01:56:20.367Z,6.04
2017-01-30T01:57:29.419Z,6.08
2017-01-30T01:58:38.375Z,6.03
2017-01-30T01:59:47.329Z,6.11
2017-01-30T02:00:56.285Z,6
2017-01-30T02:02:05.246Z,5.91
2017-01-30T02:03:14.211Z,5.91
2017-01-30T02:04:23.254Z,5.79
2017-01-30T02:05:32.296Z,5.86
2017-01-30T02:06:41.262Z,5.79
2017-01-30T02:07:50.221Z,5.85
2017-01-30T02:08:59.180Z,5.81
2017-01-30T02:10:08.131Z,5.89
2017-01-30T02:11:17.175Z,5.79
2017-01-30T02:12:26.220Z,5.74
2017-01-30T02:13:35.171Z,5.78
2017-01-30T02:14:44.131Z,5.72
2017-01-30T02:15:53.521Z,5.64
2017-01-30T02:17:02.479Z,5.64
2017-01-30T02:18:11.438Z,5.64
2017-01-30T02:19:20.392Z,5.71
2017-01-30T02:20:29.352Z,5.68
2017-01-30T02:21:38.308Z,5.72
2017-01-30T02:22:47.357Z,5.67
2017-01-30T02:23:56.312Z,5.64
2017-01-30T02:25:05.275Z,5.64
2017-01-30T02:26:14.230Z,5.65
2017-01-30T02:27:23.189Z,5.71
2017-01-30T02:28:32.152Z,5.54
2017-01-30T02:29:41.112Z,5.57
2017-01-30T02:30:50.070Z,5.6
2017-01-30T02:31:59.035Z,5.61
2017-01-30T02:33:07.993Z,5.65
2017-01-30T02:34:17.036Z,5.63
2017-01-30T02:35:26.008Z,5.48
2017-01-30T02:36:34.972Z,5.61
2017-01-30T02:37:44.014Z,5.49
2017-01-30T02:38:53.070Z,5.46
2017-01-30T02:40:02.021Z,5.51
2017-01-30T02:41:10.987Z,5.54
2017-01-30T02:42:20.035Z,5.58
2017-01-30T02:43:29.082Z,5.53
2017-01-30T02:44:38.037Z,5.56
2017-01-30T02:45:47.009Z,5.49
2017-01-30T02:46:56.374Z,5.51
2017-01-30T02:48:05.331Z,5.56
2017-01-30T02:49:14.279Z,5.49
2017-01-30T02:50:23.353Z,5.45
2017-01-30T02:51:32.318Z,5.43
2017-01-30T02:52:41.316Z,5.46
2017-01-30T02:53:50.271Z,5.4
2017-01-30T02:54:59.231Z,5.42
2017-01-30T02:56:08.193Z,5.42
2017-01-30T02:57:17.153Z,5.51
2017-01-30T02:58:26.194Z,5.46
2017-01-30T02:59:35.600Z,5.53
2017-01-30T03:00:45.051Z,5.48
2017-01-30T03:01:54.107Z,5.39
2017-01-30T03:03:03.071Z,5.3
2017-01-30T03:04:12.022Z,5.3
2017-01-30T03:05:20.990Z,5.28
2017-01-30T03:06:30.032Z,5.22
2017-01-30T03:07:38.983Z,5.22
2017-01-30T03:08:47.943Z,5.18
2017-01-30T03:09:56.929Z,5.22
2017-01-30T03:11:05.885Z,5.13
2017-01-30T03:12:14.842Z,5.24
2017-01-30T03:13:23.798Z,5.24
2017-01-30T03:14:32.800Z,5.07
2017-01-30T03:15:41.760Z,5.03
2017-01-30T03:16:50.719Z,5.06
2017-01-30T03:17:59.762Z,5.12
2017-01-30T03:19:08.723Z,5.1
2017-01-30T03:20:17.683Z,5.07
2017-01-30T03:21:26.727Z,5.06
2017-01-30T03:22:35.682Z,5.12
2017-01-30T03:23:44.637Z,5.04
2017-01-30T03:24:53.602Z,5
2017-01-30T03:26:02.558Z,5.03
2017-01-30T03:27:11.514Z,4.97
2017-01-30T03:28:20.469Z,5.06
2017-01-30T03:29:29.430Z,5
2017-01-30T03:30:38.798Z,4.97
2017-01-30T03:31:50.478Z,5.07
2017-01-30T03:33:03.439Z,5.13
2017-01-30T03:34:13.908Z,5.12
2017-01-30T03:35:26.052Z,5.06
2017-01-30T03:36:37.585Z,5.17
2017-01-30T03:37:46.547Z,5.1
2017-01-30T03:38:55.500Z,5.07
2017-01-30T03:40:07.133Z,5.03
2017-01-30T03:41:20.786Z,5.18
2017-01-30T03:42:30.931Z,5.3
2017-01-30T03:43:41.108Z,5.22
2017-01-30T03:44:52.867Z,5.22
2017-01-30T03:46:07.203Z,5.25
2017-01-30T03:47:20.613Z,5.22
2017-01-30T03:48:31.055Z,5.24
2017-01-30T03:49:45.348Z,5.28
2017-01-30T03:50:58.334Z,5.22
2017-01-30T03:52:10.391Z,5.27
2017-01-30T03:53:24.520Z,5.1
2017-01-30T03:54:38.367Z,5.04
2017-01-30T03:55:49.671Z,5.12
2017-01-30T03:56:59.166Z,4.99
2017-01-30T03:58:08.755Z,4.99
2017-01-30T03:59:19.217Z,5
2017-01-30T04:00:28.363Z,4.96
2017-01-30T04:01:39.797Z,4.97
2017-01-30T04:02:50.590Z,4.97
2017-01-30T04:04:01.652Z,4.89
2017-01-30T04:05:13.635Z,4.85
2017-01-30T04:06:28.911Z,4.84
2017-01-30T04:07:43.262Z,4.8
2017-01-30T04:08:55.640Z,4.7
2017-01-30T04:10:08.579Z,4.75
2017-01-30T04:11:23.354Z,4.69
2017-01-30T04:12:36.069Z,4.7
2017-01-30T04:13:45.113Z,4.77
2017-01-30T04:14:54.072Z,4.78
2017-01-30T04:16:03.031Z,4.75
2017-01-30T04:17:11.988Z,4.78
2017-01-30T04:18:20.946Z,4.8
2017-01-30T04:19:29.904Z,4.77
2017-01-30T04:20:38.871Z,4.75
2017-01-30T04:21:47.829Z,4.75
2017-01-30T04:22:56.895Z,4.7
2017-01-30T04:24:05.870Z,4.72
2017-01-30T04:25:14.831Z,4.75
2017-01-30T04:26:24.193Z,4.8
2017-01-30T04:27:33.149Z,4.85
2017-01-30T04:28:42.107Z,4.88
2017-01-30T04:29:51.078Z,4.88
2017-01-30T04:31:00.037Z,4.89
2017-01-30T04:32:08.995Z,4.8
2017-01-30T04:33:18.042Z,4.89
2017-01-30T04:34:26.994Z,4.91
2017-01-30T04:35:35.950Z,4.96
2017-01-30T04:36:44.903Z,4.91
2017-01-30T04:37:53.858Z,4.91
2017-01-30T04:39:02.811Z,4.94
2017-01-30T04:40:11.765Z,4.94
2017-01-30T04:41:20.722Z,4.94
2017-01-30T04:42:29.676Z,4.91
2017-01-30T04:43:38.638Z,4.92
2017-01-30T04:44:47.603Z,4.78
2017-01-30T04:45:56.553Z,4.75
2017-01-30T04:47:05.512Z,4.6
2017-01-30T04:48:14.466Z,4.62
2017-01-30T04:49:23.883Z,4.52
2017-01-30T04:50:32.841Z,4.6
2017-01-30T04:51:41.795Z,4.54
2017-01-30T04:52:50.747Z,4.6
2017-01-30T04:53:59.714Z,4.6
2017-01-30T04:55:09.074Z,4.55
2017-01-30T04:56:18.033Z,4.55
2017-01-30T04:57:26.992Z,4.52
2017-01-30T04:58:35.944Z,4.51
2017-01-30T04:59:45.010Z,4.52
2017-01-30T05:00:53.963Z,4.51
2017-01-30T05:02:03.018Z,4.54
2017-01-30T05:03:12.388Z,4.34
2017-01-30T05:04:21.347Z,4.41
2017-01-30T05:05:30.395Z,4.4
2017-01-30T05:06:39.354Z,4.3
2017-01-30T05:07:48.482Z,4.32
2017-01-30T05:08:57.434Z,4.3
2017-01-30T05:10:06.481Z,4.18
2017-01-30T05:11:15.437Z,4.23
2017-01-30T05:12:24.424Z,4.16
2017-01-30T05:13:33.379Z,4.2
2017-01-30T05:14:42.337Z,4.15
2017-01-30T05:15:51.297Z,4.18
2017-01-30T05:17:00.274Z,4.2
2017-01-30T05:18:09.318Z,4.23
2017-01-30T05:19:18.271Z,4.2
2017-01-30T05:20:27.231Z,4.24
2017-01-30T05:21:36.189Z,4.22
2017-01-30T05:22:45.235Z,4.26
2017-01-30T05:23:54.191Z,4.15
2017-01-30T05:25:03.151Z,4.16
2017-01-30T05:26:12.103Z,4.15
2017-01-30T05:27:21.057Z,4.14
2017-01-30T05:28:30.008Z,4.18
2017-01-30T05:29:38.963Z,4.32
2017-01-30T05:30:47.918Z,4.3
2017-01-30T05:31:56.877Z,4.29
2017-01-30T05:33:05.836Z,4.29
2017-01-30T05:34:14.872Z,4.29
2017-01-30T05:35:23.861Z,4.18
2017-01-30T05:36:32.813Z,4.23
2017-01-30T05:37:42.171Z,4.16
2017-01-30T05:38:51.130Z,4.18
2017-01-30T05:40:00.089Z,4.22
2017-01-30T05:41:09.042Z,4.18
2017-01-30T05:42:18.022Z,4.14
2017-01-30T05:43:26.978Z,4.16
2017-01-30T05:44:36.027Z,4.11
2017-01-30T05:45:44.985Z,4.14
2017-01-30T05:46:53.938Z,4.14
2017-01-30T05:48:02.891Z,4.18
2017-01-30T05:49:12.346Z,4.16
2017-01-30T05:50:21.301Z,4.16
2017-01-30T05:51:30.263Z,4.16
2017-01-30T05:52:39.224Z,4.2
2017-01-30T05:53:48.185Z,4.16
2017-01-30T05:54:57.147Z,4.24
2017-01-30T05:56:06.108Z,4.23
2017-01-30T05:57:15.064Z,4.24
2017-01-30T05:58:24.019Z,4.16
2017-01-30T05:59:32.988Z,4.23
2017-01-30T06:00:41.943Z,4.18
2017-01-30T06:01:50.906Z,4.22
2017-01-30T06:02:59.952Z,4.23
2017-01-30T06:04:08.915Z,4.14
2017-01-30T06:05:17.869Z,4.15
2017-01-30T06:06:26.910Z,4.14
2017-01-30T06:07:35.864Z,4.23
2017-01-30T06:08:44.821Z,4.2
2017-01-30T06:09:53.903Z,4.23
2017-01-30T06:11:03.040Z,4.2
2017-01-30T06:12:11.993Z,4.16
2017-01-30T06:13:20.962Z,4.18
2017-01-30T06:14:30.663Z,4.15
2017-01-30T06:15:39.616Z,4.12
2017-01-30T06:16:48.572Z,4.12
2017-01-30T06:17:57.612Z,4.14
2017-01-30T06:19:06.566Z,4.08
2017-01-30T06:20:15.520Z,4.05
2017-01-30T06:21:24.563Z,4.09
2017-01-30T06:22:33.519Z,4.12
2017-01-30T06:23:42.475Z,4.14
2017-01-30T06:24:51.514Z,4.12
2017-01-30T06:26:00.556Z,4.18
2017-01-30T06:27:09.929Z,4.14
2017-01-30T06:28:18.983Z,4.16
2017-01-30T06:29:27.937Z,4.16
2017-01-30T06:30:36.898Z,4.09
2017-01-30T06:31:45.940Z,4.12
2017-01-30T06:32:54.898Z,4.09
2017-01-30T06:34:03.862Z,4.11
2017-01-30T06:35:12.821Z,3.98
2017-01-30T06:36:21.777Z,4.05
2017-01-30T06:37:30.741Z,4
2017-01-30T06:38:39.695Z,3.94
2017-01-30T06:39:48.734Z,3.94
2017-01-30T06:40:57.781Z,4
2017-01-30T06:42:06.735Z,3.98
2017-01-30T06:43:15.690Z,3.96
2017-01-30T06:44:24.731Z,3.93
2017-01-30T06:45:33.779Z,3.93
2017-01-30T06:46:42.737Z,3.93
2017-01-30T06:47:51.693Z,3.96
2017-01-30T06:49:00.647Z,3.88
2017-01-30T06:50:10.009Z,3.94
2017-01-30T06:51:18.964Z,3.97
2017-01-30T06:52:27.914Z,3.98
2017-01-30T06:53:36.868Z,3.93
2017-01-30T06:54:45.913Z,3.93
2017-01-30T06:55:54.873Z,3.96
2017-01-30T06:57:03.831Z,4
2017-01-30T06:58:12.791Z,3.93
2017-01-30T06:59:21.836Z,4.09
2017-01-30T07:00:30.794Z,4.02
2017-01-30T07:01:39.750Z,4.06
2017-01-30T07:02:48.705Z,4.14
2017-01-30T07:03:57.661Z,4.09
2017-01-30T07:05:06.620Z,4.11
2017-01-30T07:06:15.663Z,4.23
2017-01-30T07:07:24.616Z,4.23
2017-01-30T07:08:33.571Z,4.23
2017-01-30T07:09:42.525Z,4.34
2017-01-30T07:10:51.482Z,4.3
2017-01-30T07:12:00.438Z,4.3
2017-01-30T07:13:09.806Z,4.36
2017-01-30T07:14:18.852Z,4.32
2017-01-30T07:15:27.805Z,4.32
2017-01-30T07:16:36.794Z,4.29
2017-01-30T07:17:45.923Z,4.34
2017-01-30T07:18:54.904Z,4.29
2017-01-30T07:20:04.272Z,4.29
2017-01-30T07:21:13.226Z,4.22
2017-01-30T07:22:22.182Z,4.29
2017-01-30T07:23:31.134Z,4.32
2017-01-30T07:24:40.173Z,4.16
2017-01-30T07:25:49.123Z,4.22
2017-01-30T07:26:58.078Z,4.23
2017-01-30T07:28:07.038Z,4.11
2017-01-30T07:29:16.004Z,4.26
2017-01-30T07:30:25.045Z,4.29
2017-01-30T07:31:33.998Z,4.29
2017-01-30T07:32:42.955Z,4.3
2017-01-30T07:33:51.911Z,4.32
2017-01-30T07:35:01.303Z,4.18
2017-01-30T07:36:10.665Z,4.22
2017-01-30T07:37:19.622Z,4.26
2017-01-30T07:38:28.585Z,4.16
2017-01-30T07:39:37.536Z,4.26
2017-01-30T07:40:46.491Z,4.29
2017-01-30T07:41:55.444Z,4.32
2017-01-30T07:43:04.809Z,4.3
2017-01-30T07:44:13.765Z,4.33
2017-01-30T07:45:22.751Z,4.33
2017-01-30T07:46:31.705Z,4.45
2017-01-30T07:47:40.662Z,4.36
2017-01-30T07:48:49.620Z,4.3
2017-01-30T07:49:58.578Z,4.29
2017-01-30T07:51:07.533Z,4.4
2017-01-30T07:52:16.509Z,4.29
2017-01-30T07:53:25.461Z,4.29
2017-01-30T07:54:34.421Z,4.36
2017-01-30T07:55:43.377Z,4.33
2017-01-30T07:56:52.333Z,4.41
2017-01-30T07:58:01.293Z,4.44
2017-01-30T07:59:10.245Z,4.48
2017-01-30T08:00:19.203Z,4.32
2017-01-30T08:01:28.162Z,4.36
2017-01-30T08:02:37.201Z,4.32
2017-01-30T08:03:46.160Z,4.29
2017-01-30T08:04:55.204Z,4.34
2017-01-30T08:06:04.185Z,4.42
2017-01-30T08:07:13.142Z,4.29
2017-01-30T08:08:22.107Z,4.3
2017-01-30T08:09:31.482Z,4.33
2017-01-30T08:10:40.556Z,4.34
2017-01-30T08:11:51.293Z,4.3
2017-01-30T08:13:02.135Z,4.34
2017-01-30T08:14:12.236Z,4.34
2017-01-30T08:15:21.191Z,4.32
2017-01-30T08:16:30.238Z,4.32
2017-01-30T08:17:39.190Z,4.26
2017-01-30T08:18:48.143Z,4.2
2017-01-30T08:19:57.095Z,4.23
2017-01-30T08:21:06.057Z,4.27
2017-01-30T08:22:15.015Z,4.15
2017-01-30T08:23:24.054Z,4.18
2017-01-30T08:24:33.011Z,4.24
2017-01-30T08:25:41.964Z,4.18
2017-01-30T08:26:51.123Z,4.23
2017-01-30T08:28:00.091Z,4.32
2017-01-30T08:29:09.048Z,4.36
2017-01-30T08:30:18.007Z,4.33
2017-01-30T08:31:27.055Z,4.32
2017-01-30T08:32:36.803Z,4.44
2017-01-30T08:33:46.386Z,4.41
2017-01-30T08:34:56.045Z,4.5
2017-01-30T08:36:05.094Z,4.33
2017-01-30T08:37:14.457Z,4.4
2017-01-30T08:38:24.779Z,4.45
2017-01-30T08:39:33.736Z,4.58
2017-01-30T08:40:43.449Z,4.51
2017-01-30T08:41:52.425Z,4.54
2017-01-30T08:43:01.752Z,4.5
2017-01-30T08:44:10.712Z,4.63
2017-01-30T08:45:21.336Z,4.58
2017-01-30T08:46:30.304Z,4.6
2017-01-30T08:47:39.855Z,4.7
2017-01-30T08:48:49.031Z,4.65
2017-01-30T08:49:57.999Z,4.69
2017-01-30T08:51:07.666Z,4.69
2017-01-30T08:52:16.626Z,4.6
2017-01-30T08:53:26.202Z,4.58
2017-01-30T08:54:36.213Z,4.63
2017-01-30T08:55:45.655Z,4.65
2017-01-30T08:56:54.610Z,4.62
2017-01-30T08:58:03.575Z,4.66
2017-01-30T08:59:12.531Z,4.7
2017-01-30T09:00:21.492Z,4.72
2017-01-30T09:01:31.221Z,4.73
2017-01-30T09:02:41.372Z,4.85
2017-01-30T09:03:50.327Z,4.82
2017-01-30T09:04:59.541Z,4.84
2017-01-30T09:06:08.957Z,4.88
2017-01-30T09:07:19.187Z,4.86
2017-01-30T09:08:28.140Z,4.84
2017-01-30T09:09:37.105Z,4.86
2017-01-30T09:10:46.063Z,4.82
2017-01-30T09:11:55.022Z,4.84
2017-01-30T09:13:03.984Z,4.85
2017-01-30T09:14:13.034Z,4.97
2017-01-30T09:15:22.659Z,4.85
2017-01-30T09:16:32.218Z,5.02
2017-01-30T09:17:42.046Z,5.06
2017-01-30T09:18:51.336Z,5.12
2017-01-30T09:20:01.308Z,5.07
2017-01-30T09:21:10.264Z,5.13
2017-01-30T09:22:19.763Z,5.18
2017-01-30T09:23:29.856Z,5.13
2017-01-30T09:24:38.820Z,5.22
2017-01-30T09:25:48.950Z,5.17
2017-01-30T09:26:58.803Z,5.28
2017-01-30T09:28:07.759Z,5.25
2017-01-30T09:29:17.111Z,5.28
2017-01-30T09:30:26.428Z,5.17
2017-01-30T09:31:35.391Z,5.24
2017-01-30T09:32:44.347Z,5.24
2017-01-30T09:33:53.312Z,5.12
2017-01-30T09:35:02.265Z,5.24
2017-01-30T09:36:11.222Z,5.28
2017-01-30T09:37:20.178Z,5.27
2017-01-30T09:38:29.139Z,5.22
2017-01-30T09:39:38.096Z,5.2
2017-01-30T09:40:47.065Z,5.24
2017-01-30T09:41:56.019Z,5.22
2017-01-30T09:43:05.800Z,5.35
2017-01-30T09:44:14.762Z,5.35
2017-01-30T09:45:24.190Z,5.31
2017-01-30T09:46:33.996Z,5.27
2017-01-30T09:47:42.955Z,5.33
2017-01-30T09:48:52.204Z,5.33
2017-01-30T09:50:01.875Z,5.38
2017-01-30T09:51:10.832Z,5.35
2017-01-30T09:52:19.876Z,5.35
2017-01-30T09:53:28.918Z,5.39
2017-01-30T09:54:37.874Z,5.35
2017-01-30T09:55:46.835Z,5.31
2017-01-30T09:56:55.796Z,5.43
2017-01-30T09:58:04.753Z,5.42
2017-01-30T09:59:13.712Z,5.43
2017-01-30T10:00:22.667Z,5.42
2017-01-30T10:01:31.630Z,5.43
2017-01-30T10:02:41.003Z,5.43
2017-01-30T10:03:50.049Z,5.48
2017-01-30T10:04:59.008Z,5.51
2017-01-30T10:06:07.973Z,5.48
2017-01-30T10:07:16.932Z,5.46
2017-01-30T10:08:25.895Z,5.42
2017-01-30T10:09:34.849Z,5.39
2017-01-30T10:10:43.807Z,5.48
2017-01-30T10:11:53.170Z,5.53
2017-01-30T10:13:02.135Z,5.61
2017-01-30T10:14:11.094Z,5.6
2017-01-30T10:15:20.143Z,5.54
2017-01-30T10:16:30.911Z,5.51
2017-01-30T10:17:39.872Z,5.53
2017-01-30T10:18:49.417Z,5.56
2017-01-30T10:19:59.433Z,5.54
2017-01-30T10:21:08.397Z,5.63
2017-01-30T10:22:17.350Z,5.57
2017-01-30T10:23:26.304Z,5.61
2017-01-30T10:24:35.260Z,5.51
2017-01-30T10:25:44.930Z,5.71
2017-01-30T10:26:54.672Z,5.71
2017-01-30T10:28:04.336Z,5.61
2017-01-30T10:29:13.292Z,5.56
2017-01-30T10:30:22.961Z,5.53
2017-01-30T10:31:32.086Z,5.48
2017-01-30T10:32:41.167Z,5.57
2017-01-30T10:33:50.454Z,5.49
2017-01-30T10:34:59.413Z,5.53
2017-01-30T10:36:08.376Z,5.53
2017-01-30T10:37:17.331Z,5.53
2017-01-30T10:38:26.310Z,5.49
2017-01-30T10:39:35.264Z,5.58
2017-01-30T10:40:44.323Z,5.58
2017-01-30T10:41:53.279Z,5.51
2017-01-30T10:43:02.243Z,5.49
2017-01-30T10:44:11.215Z,5.54
2017-01-30T10:45:20.171Z,5.58
2017-01-30T10:46:29.127Z,5.49
2017-01-30T10:47:38.081Z,5.48
2017-01-30T10:48:47.037Z,5.43
2017-01-30T10:49:55.991Z,5.33
2017-01-30T10:51:05.762Z,5.35
2017-01-30T10:52:14.802Z,5.3
2017-01-30T10:53:23.764Z,5.22
2017-01-30T10:54:32.721Z,5.2
2017-01-30T10:55:41.685Z,5.2
2017-01-30T10:56:50.646Z,5.24
2017-01-30T10:57:59.608Z,5.27
2017-01-30T10:59:08.573Z,5.27
2017-01-30T11:00:17.524Z,5.21
2017-01-30T11:01:26.484Z,5.25
2017-01-30T11:02:35.844Z,5.25
2017-01-30T11:03:44.800Z,5.22
2017-01-30T11:04:53.767Z,5.28
2017-01-30T11:06:02.809Z,5.33
2017-01-30T11:07:12.270Z,5.22
2017-01-30T11:08:21.228Z,5.31
2017-01-30T11:09:30.673Z,5.3
2017-01-30T11:10:39.645Z,5.33
2017-01-30T11:11:48.621Z,5.31
2017-01-30T11:12:57.664Z,5.49
2017-01-30T11:14:06.617Z,5.6
2017-01-30T11:15:15.989Z,5.68
2017-01-30T11:16:24.954Z,5.75
2017-01-30T11:17:33.916Z,5.89
2017-01-30T11:18:43.286Z,5.81
2017-01-30T11:19:52.333Z,5.89
2017-01-30T11:21:01.293Z,5.94
2017-01-30T11:22:10.339Z,5.97
2017-01-30T11:23:19.302Z,5.96
2017-01-30T11:24:28.352Z,6.03
2017-01-30T11:25:37.430Z,6.01
2017-01-30T11:26:46.681Z,6.08
2017-01-30T11:27:55.726Z,6.01
2017-01-30T11:29:04.691Z,6.21
2017-01-30T11:30:13.673Z,6.21
2017-01-30T11:31:22.639Z,6.17
2017-01-30T11:32:31.596Z,6.22
2017-01-30T11:33:41.044Z,6.09
2017-01-30T11:34:50.002Z,6.17
2017-01-30T11:35:58.959Z,6.19
2017-01-30T11:37:08.405Z,6.03
2017-01-30T11:38:17.362Z,6.01
2017-01-30T11:39:26.322Z,6.06
2017-01-30T11:40:35.692Z,6.01
2017-01-30T11:41:44.648Z,6.18
2017-01-30T11:42:53.602Z,6.22
2017-01-30T11:44:02.567Z,6.17
2017-01-30T11:45:11.525Z,6.21
2017-01-30T11:46:20.479Z,6.22
2017-01-30T11:47:29.435Z,6.22
2017-01-30T11:48:38.402Z,6.14
2017-01-30T11:49:47.379Z,6.3
2017-01-30T11:50:56.351Z,6.3
2017-01-30T11:52:05.316Z,6.28
2017-01-30T11:53:14.284Z,6.33
2017-01-30T11:54:23.242Z,6.41
2017-01-30T11:55:32.199Z,6.34
2017-01-30T11:56:41.181Z,6.38
2017-01-30T11:57:50.136Z,6.43
2017-01-30T11:58:59.093Z,6.43
2017-01-30T12:00:08.051Z,6.49
2017-01-30T12:01:17.005Z,6.52
2017-01-30T12:02:25.970Z,6.49
2017-01-30T12:03:34.927Z,6.58
2017-01-30T12:04:43.885Z,6.54
2017-01-30T12:05:52.844Z,6.66
2017-01-30T12:07:01.889Z,6.55
2017-01-30T12:08:10.846Z,6.67
2017-01-30T12:09:19.799Z,6.61
2017-01-30T12:10:28.854Z,6.64
2017-01-30T12:11:37.813Z,6.64
2017-01-30T12:12:46.767Z,6.67
2017-01-30T12:13:55.751Z,6.67
2017-01-30T12:15:04.710Z,6.69
2017-01-30T12:16:13.671Z,6.7
2017-01-30T12:17:22.626Z,6.7
2017-01-30T12:18:32.004Z,6.88
2017-01-30T12:19:40.964Z,6.89
2017-01-30T12:20:49.922Z,7.05
2017-01-30T12:21:58.885Z,6.88
2017-01-30T12:23:08.255Z,6.91
2017-01-30T12:24:17.217Z,6.94
2017-01-30T12:25:26.263Z,6.91
2017-01-30T12:26:35.221Z,7.05
2017-01-30T12:27:44.177Z,7.03
2017-01-30T12:28:53.136Z,7.05
2017-01-30T12:30:02.095Z,6.99
2017-01-30T12:31:11.062Z,6.94
2017-01-30T12:32:20.512Z,6.73
2017-01-30T12:33:29.466Z,6.91
2017-01-30T12:34:38.420Z,6.8
2017-01-30T12:35:47.790Z,6.84
2017-01-30T12:36:56.745Z,6.66
2017-01-30T12:38:05.713Z,6.62
2017-01-30T12:39:14.701Z,6.52
2017-01-30T12:40:23.656Z,6.51
2017-01-30T12:41:32.615Z,6.51
2017-01-30T12:42:41.575Z,6.49
2017-01-30T12:43:50.534Z,6.51
2017-01-30T12:44:59.491Z,6.44
2017-01-30T12:46:08.445Z,6.43
2017-01-30T12:47:17.408Z,6.46
2017-01-30T12:48:26.366Z,6.33
2017-01-30T12:49:35.411Z,6.28
2017-01-30T12:50:44.366Z,6.27
2017-01-30T12:51:53.416Z,6.19
2017-01-30T12:53:02.460Z,6.03
2017-01-30T12:54:11.424Z,5.91
2017-01-30T12:55:20.384Z,5.85
2017-01-30T12:56:29.343Z,5.72
2017-01-30T12:57:38.814Z,5.51
2017-01-30T12:58:48.177Z,5.48
2017-01-30T12:59:57.130Z,5.43
2017-01-30T13:01:06.091Z,5.3
2017-01-30T13:02:15.046Z,5.31
2017-01-30T13:03:24.004Z,5.31
2017-01-30T13:04:33.050Z,5.22
2017-01-30T13:05:42.010Z,5.22
2017-01-30T13:06:50.966Z,5.18
2017-01-30T13:08:00.332Z,5.2
2017-01-30T13:09:09.377Z,5.03
2017-01-30T13:10:18.334Z,5.09
2017-01-30T13:11:27.380Z,5.09
2017-01-30T13:12:36.422Z,5.15
2017-01-30T13:13:45.379Z,5.1
2017-01-30T13:14:54.334Z,5.06
2017-01-30T13:16:03.322Z,5.02
2017-01-30T13:17:12.390Z,5.09
2017-01-30T13:18:21.342Z,5.12
2017-01-30T13:19:30.296Z,5.09
2017-01-30T13:20:39.250Z,5
2017-01-30T13:21:48.202Z,5.03
2017-01-30T13:22:57.567Z,4.96
2017-01-30T13:24:06.523Z,4.96
2017-01-30T13:25:15.478Z,4.85
2017-01-30T13:26:24.438Z,4.84
2017-01-30T13:27:33.395Z,4.88
2017-01-30T13:28:42.350Z,4.84
2017-01-30T13:29:51.300Z,4.91
2017-01-30T13:31:00.341Z,4.89
2017-01-30T13:32:09.717Z,4.91
2017-01-30T13:33:18.672Z,4.92
2017-01-30T13:34:27.652Z,4.96
2017-01-30T13:35:36.608Z,4.86
2017-01-30T13:36:46.349Z,4.85
2017-01-30T13:37:55.304Z,4.84
2017-01-30T13:39:04.272Z,4.82
2017-01-30T13:40:13.227Z,4.73
2017-01-30T13:41:22.182Z,4.73
2017-01-30T13:42:31.548Z,4.69
2017-01-30T13:43:40.505Z,4.65
2017-01-30T13:44:49.460Z,4.67
2017-01-30T13:45:58.421Z,4.66
2017-01-30T13:47:07.784Z,4.72
2017-01-30T13:48:16.739Z,4.65
2017-01-30T13:49:25.694Z,4.7
2017-01-30T13:50:34.648Z,4.65
2017-01-30T13:51:43.698Z,4.73
2017-01-30T13:52:52.657Z,4.66
2017-01-30T13:54:01.611Z,4.67
2017-01-30T13:55:10.559Z,4.63
2017-01-30T13:56:19.601Z,4.58
2017-01-30T13:57:28.556Z,4.55
2017-01-30T13:58:37.607Z,4.58
2017-01-30T13:59:46.567Z,4.62
2017-01-30T14:00:55.577Z,4.54
2017-01-30T14:02:04.532Z,4.55
2017-01-30T14:03:13.488Z,4.54
2017-01-30T14:04:22.529Z,4.47
2017-01-30T14:05:31.573Z,4.4
2017-01-30T14:06:40.936Z,4.45
2017-01-30T14:07:49.900Z,4.47
2017-01-30T14:08:58.857Z,4.3
2017-01-30T14:10:07.812Z,4.41
2017-01-30T14:11:16.856Z,4.3
2017-01-30T14:12:25.815Z,4.33
2017-01-30T14:13:34.768Z,4.29
2017-01-30T14:14:43.726Z,4.32
2017-01-30T14:15:52.687Z,4.34
2017-01-30T14:17:01.646Z,4.32
2017-01-30T14:18:10.604Z,4.34
2017-01-30T14:19:19.563Z,4.3
2017-01-30T14:20:28.516Z,4.26
2017-01-30T14:21:37.473Z,4.29
2017-01-30T14:22:46.427Z,4.29
2017-01-30T14:23:55.390Z,4.33
2017-01-30T14:25:04.342Z,4.32
2017-01-30T14:26:13.297Z,4.34
2017-01-30T14:27:22.264Z,4.24
2017-01-30T14:28:31.945Z,4.18
2017-01-30T14:29:41.591Z,4.15
2017-01-30T14:30:51.284Z,4.14
2017-01-30T14:32:00.253Z,4.24
2017-01-30T14:33:09.616Z,4.18
2017-01-30T14:34:18.669Z,4.26
2017-01-30T14:35:28.359Z,4.3
2017-01-30T14:36:37.314Z,4.24
2017-01-30T14:37:48.019Z,4.23
2017-01-30T14:38:58.982Z,4.23
2017-01-30T14:40:09.149Z,4.26
2017-01-30T14:41:18.779Z,4.26
2017-01-30T14:42:28.152Z,4.24
2017-01-30T14:43:37.115Z,4.26
2017-01-30T14:44:46.082Z,4.24
2017-01-30T14:45:55.032Z,4.15
2017-01-30T14:47:03.986Z,4.14
2017-01-30T14:48:12.942Z,4.2
2017-01-30T14:49:21.983Z,4.2
2017-01-30T14:50:30.931Z,4.2
2017-01-30T14:51:39.888Z,4.2
2017-01-30T14:52:48.842Z,4.2
2017-01-30T14:53:57.798Z,4.12
2017-01-30T14:55:06.841Z,4.2
2017-01-30T14:56:15.797Z,4.23
2017-01-30T14:57:25.060Z,4.2
2017-01-30T14:58:34.014Z,4.23
2017-01-30T14:59:42.962Z,4.23
2017-01-30T15:00:52.316Z,4.18
2017-01-30T15:02:01.584Z,4.29
2017-01-30T15:03:12.239Z,4.29
2017-01-30T15:04:21.843Z,4.36
2017-01-30T15:05:31.535Z,4.34
2017-01-30T15:06:40.585Z,4.33
2017-01-30T15:07:50.306Z,4.34
2017-01-30T15:08:59.448Z,4.37
2017-01-30T15:10:08.495Z,4.32
2017-01-30T15:11:17.453Z,4.29
2017-01-30T15:12:27.551Z,4.3
2017-01-30T15:13:37.355Z,4.41
2017-01-30T15:14:46.634Z,4.32
2017-01-30T15:15:55.590Z,4.32
2017-01-30T15:17:05.382Z,4.29
2017-01-30T15:18:14.990Z,4.3
2017-01-30T15:19:24.384Z,4.34
2017-01-30T15:20:33.344Z,4.32
2017-01-30T15:21:42.301Z,4.33
2017-01-30T15:22:51.935Z,4.32
2017-01-30T15:24:01.267Z,4.4
2017-01-30T15:25:10.973Z,4.32
2017-01-30T15:26:20.535Z,4.32
2017-01-30T15:27:29.982Z,4.33
2017-01-30T15:28:39.546Z,4.37
2017-01-30T15:29:48.516Z,4.32
2017-01-30T15:30:57.465Z,4.36